createdAt,value
2022-09-03T00:02:20.768Z,55.07
2022-09-03T00:05:05.254Z,55.78
2022-09-03T00:08:05.885Z,55.47
2022-09-03T00:10:53.375Z,55.52
2022-09-03T00:13:42.962Z,55.46
2022-09-03T00:16:22.848Z,56.08
2022-09-03T00:18:58.924Z,55.74
2022-09-03T00:21:50.068Z,56.13
2022-09-03T00:24:30.872Z,55.78
2022-09-03T00:27:08.030Z,56.14
2022-09-03T00:30:01.457Z,56.30
2022-09-03T00:33:13.849Z,56.38
2022-09-03T00:36:03.517Z,56.74
2022-09-03T00:38:37.809Z,56.39
2022-09-03T00:41:24.298Z,56.75
2022-09-03T00:44:14.860Z,56.28
2022-09-03T00:47:00.344Z,56.41
2022-09-03T00:49:37.588Z,56.75
2022-09-03T00:52:26.790Z,56.52
2022-09-03T00:55:31.898Z,56.29
2022-09-03T00:58:25.240Z,56.78
2022-09-03T01:00:57.006Z,56.89
2022-09-03T01:03:51.266Z,56.92
2022-09-03T01:06:55.663Z,56.96
2022-09-03T01:09:53.900Z,57.02
2022-09-03T01:12:42.069Z,57.14
2022-09-03T01:15:27.103Z,56.91
2022-09-03T01:18:19.088Z,57.43
2022-09-03T01:21:13.545Z,57.09
2022-09-03T01:24:36.675Z,57.31
2022-09-03T01:27:58.528Z,57.21
2022-09-03T01:30:34.384Z,57.18
2022-09-03T01:33:24.285Z,57.48
2022-09-03T01:36:24.684Z,57.97
2022-09-03T01:39:06.911Z,57.39
2022-09-03T01:42:12.525Z,57.36
2022-09-03T01:45:06.365Z,57.24
2022-09-03T01:48:06.251Z,57.41
2022-09-03T01:51:19.534Z,58.54
2022-09-03T01:54:21.229Z,59.10
2022-09-03T01:57:35.212Z,58.26
2022-09-03T02:00:13.262Z,58.89
2022-09-03T02:02:49.170Z,58.78
2022-09-03T02:05:28.174Z,58.94
2022-09-03T02:08:02.903Z,59.04
2022-09-03T02:10:45.711Z,58.94
2022-09-03T02:13:24.679Z,58.70
2022-09-03T02:16:00.181Z,58.97
2022-09-03T02:18:39.072Z,58.96
2022-09-03T02:21:10.833Z,59.19
2022-09-03T02:23:42.712Z,59.59
2022-09-03T02:26:18.694Z,59.61
2022-09-03T02:28:52.018Z,59.61
2022-09-03T02:31:24.225Z,59.99
2022-09-03T02:33:57.890Z,59.48
2022-09-03T02:36:36.116Z,60.01
2022-09-03T02:39:07.756Z,60.03
2022-09-03T02:41:39.627Z,60.30
2022-09-03T02:44:23.952Z,59.97
2022-09-03T02:47:00.697Z,60.28
2022-09-03T02:49:32.954Z,60.51
2022-09-03T02:52:09.844Z,60.65
2022-09-03T02:54:41.844Z,60.62
2022-09-03T02:57:15.817Z,60.42
2022-09-03T02:59:47.412Z,60.92
2022-09-03T03:02:19.072Z,60.97
2022-09-03T03:04:50.869Z,61.04
2022-09-03T03:07:22.568Z,60.77
2022-09-03T03:09:54.493Z,60.99
2022-09-03T03:12:26.464Z,61.13
2022-09-03T03:14:58.072Z,61.02
2022-09-03T03:17:29.825Z,60.81
2022-09-03T03:20:03.681Z,61.23
2022-09-03T03:22:35.713Z,61.55
2022-09-03T03:25:07.913Z,61.87
2022-09-03T03:27:41.877Z,61.56
2022-09-03T03:30:14.176Z,61.69
2022-09-03T03:32:45.814Z,61.77
2022-09-03T03:35:17.465Z,61.80
2022-09-03T03:37:49.104Z,61.85
2022-09-03T03:40:20.728Z,61.79
2022-09-03T03:42:54.613Z,61.56
2022-09-03T03:45:26.375Z,62.14
2022-09-03T03:47:59.321Z,61.79
2022-09-03T03:50:33.881Z,61.74
2022-09-03T03:53:05.468Z,62.03
2022-09-03T03:55:39.715Z,62.04
2022-09-03T03:58:11.377Z,62.16
2022-09-03T04:00:42.990Z,62.38
2022-09-03T04:03:14.681Z,63.02
2022-09-03T04:05:57.695Z,62.81
2022-09-03T04:08:29.774Z,63.08
2022-09-03T04:11:03.100Z,62.65
2022-09-03T04:13:37.456Z,62.95
2022-09-03T04:16:18.547Z,63.00
2022-09-03T04:18:52.298Z,63.10
2022-09-03T04:21:29.386Z,63.09
2022-09-03T04:24:00.980Z,62.88
2022-09-03T04:26:33.466Z,62.89
2022-09-03T04:29:08.176Z,63.06
2022-09-03T04:32:01.710Z,62.54
2022-09-03T04:34:33.396Z,62.93
2022-09-03T04:37:05.021Z,62.95
2022-09-03T04:39:36.690Z,62.93
2022-09-03T04:42:08.263Z,62.69
2022-09-03T04:44:41.147Z,63.04
2022-09-03T04:47:15.476Z,62.65
2022-09-03T04:49:47.382Z,62.68
2022-09-03T04:52:19.495Z,62.57
2022-09-03T04:54:51.435Z,62.41
2022-09-03T04:57:23.169Z,62.06
2022-09-03T04:59:55.441Z,61.72
2022-09-03T05:02:28.352Z,60.04
2022-09-03T05:05:00.018Z,59.83
2022-09-03T05:07:38.799Z,58.67
2022-09-03T05:10:16.127Z,57.49
2022-09-03T05:12:49.909Z,56.55
2022-09-03T05:15:21.591Z,55.84
2022-09-03T05:17:57.612Z,55.16
2022-09-03T05:20:30.974Z,54.72
2022-09-03T05:23:03.917Z,53.69
2022-09-03T05:25:35.992Z,52.12
2022-09-03T05:28:07.705Z,51.68
2022-09-03T05:30:39.286Z,51.43
2022-09-03T05:33:10.912Z,51.53
2022-09-03T05:35:42.521Z,51.02
2022-09-03T05:38:15.884Z,50.62
2022-09-03T05:40:47.816Z,50.77
2022-09-03T05:43:21.037Z,50.96
2022-09-03T05:45:56.840Z,50.22
2022-09-03T05:48:33.350Z,50.67
2022-09-03T05:51:10.109Z,50.58
2022-09-03T05:53:45.131Z,50.38
2022-09-03T05:56:19.266Z,50.33
2022-09-03T05:58:53.587Z,50.11
2022-09-03T06:01:28.657Z,49.56
2022-09-03T06:04:02.955Z,48.99
2022-09-03T06:06:37.178Z,48.43
2022-09-03T06:09:11.191Z,48.20
2022-09-03T06:11:42.853Z,46.95
2022-09-03T06:14:14.821Z,47.98
2022-09-03T06:16:49.813Z,47.78
2022-09-03T06:19:21.606Z,47.77
2022-09-03T06:21:55.232Z,47.98
2022-09-03T06:24:28.643Z,47.35
2022-09-03T06:27:00.427Z,48.27
2022-09-03T06:29:32.043Z,48.00
2022-09-03T06:32:05.026Z,47.89
2022-09-03T06:34:36.769Z,48.39
2022-09-03T06:37:08.421Z,48.85
2022-09-03T06:39:40.038Z,48.20
2022-09-03T06:42:12.320Z,48.30
2022-09-03T06:44:46.699Z,48.11
2022-09-03T06:47:18.348Z,48.15
2022-09-03T06:49:49.897Z,46.82
2022-09-03T06:52:22.324Z,45.18
2022-09-03T06:54:53.944Z,44.38
2022-09-03T06:57:25.578Z,43.90
2022-09-03T06:59:57.246Z,43.34
2022-09-03T07:02:28.875Z,42.19
2022-09-03T07:05:00.560Z,41.16
2022-09-03T07:07:32.490Z,40.56
2022-09-03T07:10:04.437Z,41.14
2022-09-03T07:12:37.643Z,40.81
2022-09-03T07:15:09.810Z,40.26
2022-09-03T07:17:41.413Z,40.05
2022-09-03T07:20:13.065Z,38.11
2022-09-03T07:22:44.694Z,37.83
2022-09-03T07:25:16.331Z,37.38
2022-09-03T07:27:51.148Z,36.95
2022-09-03T07:30:23.034Z,36.83
2022-09-03T07:32:55.007Z,36.69
2022-09-03T07:35:27.823Z,35.08
2022-09-03T07:38:00.737Z,34.91
2022-09-03T07:40:33.177Z,34.60
2022-09-03T07:43:06.137Z,34.64
2022-09-03T07:45:39.130Z,35.09
2022-09-03T07:48:10.785Z,34.07
2022-09-03T07:50:42.444Z,34.46
2022-09-03T07:53:17.347Z,34.39
2022-09-03T07:55:49.324Z,34.23
2022-09-03T07:58:24.668Z,33.63
2022-09-03T08:00:57.750Z,33.62
2022-09-03T08:03:29.434Z,33.14
2022-09-03T08:06:06.886Z,32.12
2022-09-03T08:08:39.675Z,31.81
2022-09-03T08:11:15.964Z,31.89
2022-09-03T08:13:57.617Z,32.38
2022-09-03T08:16:34.901Z,31.90
2022-09-03T08:19:07.579Z,32.23
2022-09-03T08:21:42.722Z,32.11
2022-09-03T08:24:16.647Z,32.30
2022-09-03T08:26:52.005Z,32.34
2022-09-03T08:29:23.858Z,31.83
2022-09-03T08:31:59.736Z,31.79
2022-09-03T08:34:31.979Z,32.27
2022-09-03T08:37:03.598Z,32.64
2022-09-03T08:39:35.403Z,32.49
2022-09-03T08:42:28.647Z,32.39
2022-09-03T08:45:08.332Z,32.47
2022-09-03T08:47:43.221Z,33.19
2022-09-03T08:50:29.401Z,33.14
2022-09-03T08:53:12.256Z,32.84
2022-09-03T08:56:19.693Z,33.78
2022-09-03T08:58:51.369Z,34.07
2022-09-03T09:01:33.846Z,33.87
2022-09-03T09:04:24.809Z,35.22
2022-09-03T09:07:14.877Z,35.87
2022-09-03T09:09:54.877Z,35.75
2022-09-03T09:12:58.901Z,36.51
2022-09-03T09:15:43.141Z,36.15
2022-09-03T09:18:56.013Z,37.52
2022-09-03T09:21:30.556Z,37.07
2022-09-03T09:24:06.933Z,36.71
2022-09-03T09:26:41.781Z,36.90
2022-09-03T09:29:14.485Z,37.72
2022-09-03T09:31:46.077Z,37.89
2022-09-03T09:34:17.662Z,36.93
2022-09-03T09:36:56.319Z,37.31
2022-09-03T09:39:27.969Z,37.74
2022-09-03T09:42:10.962Z,37.92
2022-09-03T09:44:45.569Z,38.53
2022-09-03T09:47:28.771Z,39.36
2022-09-03T09:50:02.837Z,38.95
2022-09-03T09:52:34.421Z,38.99
2022-09-03T09:55:14.748Z,39.10
2022-09-03T09:57:46.443Z,38.01
2022-09-03T10:00:18.803Z,37.51
2022-09-03T10:02:54.556Z,37.33
2022-09-03T10:05:32.959Z,37.79
2022-09-03T10:08:26.072Z,37.34
2022-09-03T10:10:57.655Z,36.83
2022-09-03T10:13:41.732Z,36.88
2022-09-03T10:16:28.048Z,36.81
2022-09-03T10:19:06.470Z,36.52
2022-09-03T10:22:03.143Z,36.60
2022-09-03T10:24:59.004Z,36.27
2022-09-03T10:27:32.040Z,36.16
2022-09-03T10:30:07.735Z,36.52
2022-09-03T10:32:59.789Z,36.67
2022-09-03T10:35:35.576Z,36.59
2022-09-03T10:38:26.512Z,36.44
2022-09-03T10:41:28.926Z,35.71
2022-09-03T10:44:21.343Z,35.29
2022-09-03T10:47:14.824Z,34.87
2022-09-03T10:50:01.785Z,34.85
2022-09-03T10:53:15.174Z,32.82
2022-09-03T10:56:01.985Z,33.41
2022-09-03T10:58:52.967Z,32.61
2022-09-03T11:02:00.213Z,32.07
2022-09-03T11:04:54.981Z,31.86
2022-09-03T11:07:32.620Z,32.27
2022-09-03T11:10:31.068Z,32.12
2022-09-03T11:13:09.318Z,31.92
2022-09-03T11:15:54.603Z,32.18
2022-09-03T11:18:33.854Z,32.08
2022-09-03T11:21:12.317Z,31.00
2022-09-03T11:23:47.537Z,29.57
2022-09-03T11:26:23.094Z,29.58
2022-09-03T11:29:25.320Z,30.75
2022-09-03T11:32:16.003Z,30.97
2022-09-03T11:34:54.617Z,30.77
2022-09-03T11:37:30.433Z,30.32
2022-09-03T11:40:19.347Z,30.10
2022-09-03T11:42:51.309Z,30.22
2022-09-03T11:45:30.306Z,30.05
2022-09-03T11:48:02.250Z,30.45
2022-09-03T11:50:34.563Z,30.74
2022-09-03T11:53:13.615Z,30.69
2022-09-03T11:55:55.665Z,30.85
2022-09-03T11:58:35.041Z,31.14
2022-09-03T12:01:18.797Z,31.40
2022-09-03T12:03:57.929Z,30.94
2022-09-03T12:06:43.201Z,30.58
2022-09-03T12:09:28.541Z,31.36
2022-09-03T12:12:18.949Z,31.07
2022-09-03T12:15:02.501Z,31.15
2022-09-03T12:18:12.368Z,31.17
2022-09-03T12:20:44.961Z,31.08
2022-09-03T12:23:44.738Z,31.66
2022-09-03T12:26:19.844Z,31.82
2022-09-03T12:29:00.201Z,31.58
2022-09-03T12:31:45.026Z,31.34
2022-09-03T12:34:18.856Z,31.88
2022-09-03T12:36:53.422Z,31.91
2022-09-03T12:42:25.296Z,31.94
2022-09-03T12:45:06.644Z,31.86
2022-09-03T12:47:43.266Z,32.37
2022-09-03T12:50:21.351Z,31.78
2022-09-03T12:53:03.911Z,31.64
2022-09-03T12:56:01.420Z,31.60
2022-09-03T12:58:40.022Z,32.45
2022-09-03T13:01:17.192Z,33.12
2022-09-03T13:03:54.265Z,34.21
2022-09-03T13:06:30.348Z,33.82
2022-09-03T13:09:06.461Z,34.18
2022-09-03T13:11:38.077Z,34.43
2022-09-03T13:14:14.450Z,34.21
2022-09-03T13:16:46.438Z,34.56
2022-09-03T13:19:42.387Z,34.69
2022-09-03T13:22:26.984Z,34.90
2022-09-03T13:25:17.268Z,34.61
2022-09-03T13:28:27.729Z,34.92
2022-09-03T13:31:08.670Z,35.04
2022-09-03T13:33:45.626Z,34.86
2022-09-03T13:36:21.494Z,35.52
2022-09-03T13:39:23.377Z,36.10
2022-09-03T13:42:06.036Z,36.07
2022-09-03T13:44:48.386Z,36.11
2022-09-03T13:48:15.572Z,36.03
2022-09-03T13:51:14.333Z,36.00
2022-09-03T13:53:55.584Z,36.12
2022-09-03T13:56:44.583Z,36.72
2022-09-03T13:59:29.351Z,36.30
2022-09-03T14:02:19.204Z,36.31
2022-09-03T14:05:10.169Z,36.38
2022-09-03T14:08:09.375Z,36.67
2022-09-03T14:11:16.557Z,36.85
2022-09-03T14:14:07.311Z,37.14
2022-09-03T14:16:45.322Z,36.54
2022-09-03T14:19:29.053Z,37.62
2022-09-03T14:22:09.835Z,37.80
2022-09-03T14:24:49.202Z,37.58
2022-09-03T14:27:39.003Z,37.79
2022-09-03T14:30:16.513Z,37.16
2022-09-03T14:32:56.913Z,36.93
2022-09-03T14:36:03.452Z,36.86
2022-09-03T14:38:46.596Z,36.34
2022-09-03T14:41:33.028Z,36.61
2022-09-03T14:44:17.239Z,36.73
2022-09-03T14:47:21.264Z,36.30
2022-09-03T14:50:19.771Z,36.90
2022-09-03T14:53:29.392Z,36.94
2022-09-03T14:56:21.941Z,37.09
2022-09-03T14:59:12.601Z,37.35
2022-09-03T15:01:50.267Z,36.85
2022-09-03T15:04:51.498Z,37.22
2022-09-03T15:07:49.661Z,37.20
2022-09-03T15:10:45.034Z,37.68
2022-09-03T15:13:19.112Z,37.48
2022-09-03T15:16:09.119Z,37.64
2022-09-03T15:19:16.365Z,37.94
2022-09-03T15:22:11.151Z,37.68
2022-09-03T15:25:09.627Z,37.16
2022-09-03T15:28:23.065Z,37.49
2022-09-03T15:31:02.935Z,37.71
2022-09-03T15:33:51.578Z,37.66
2022-09-03T15:36:27.428Z,37.68
2022-09-03T15:39:24.762Z,37.77
2022-09-03T15:42:04.717Z,37.51
2022-09-03T15:44:48.266Z,37.45
2022-09-03T15:47:50.516Z,37.42
2022-09-03T15:50:57.127Z,37.70
2022-09-03T15:53:36.492Z,38.03
2022-09-03T15:56:15.345Z,38.23
2022-09-03T15:59:03.592Z,37.60
2022-09-03T16:01:46.320Z,37.42
2022-09-03T16:04:27.664Z,37.75
2022-09-03T16:07:24.154Z,37.84
2022-09-03T16:10:25.299Z,38.22
2022-09-03T16:13:41.777Z,38.32
2022-09-03T16:16:24.452Z,38.20
2022-09-03T16:19:23.727Z,38.16
2022-09-03T16:22:34.246Z,38.59
2022-09-03T16:25:17.865Z,38.88
2022-09-03T16:28:10.289Z,38.72
2022-09-03T16:30:57.532Z,38.28
2022-09-03T16:33:45.062Z,38.28
2022-09-03T16:36:32.176Z,37.95
2022-09-03T16:39:31.580Z,38.46
2022-09-03T16:42:26.161Z,38.44
2022-09-03T16:45:09.535Z,38.97
2022-09-03T16:47:59.593Z,38.91
2022-09-03T16:50:58.027Z,38.98
2022-09-03T16:53:35.507Z,38.75
2022-09-03T16:56:14.049Z,38.92
2022-09-03T16:58:52.881Z,39.05
2022-09-03T17:01:52.431Z,38.84
2022-09-03T17:04:28.784Z,38.88
2022-09-03T17:07:38.990Z,39.21
2022-09-03T17:10:44.627Z,39.42
2022-09-03T17:13:25.016Z,40.08
2022-09-03T17:16:26.726Z,39.56
2022-09-03T17:19:23.096Z,40.00
2022-09-03T17:22:35.779Z,40.69
2022-09-03T17:25:39.328Z,40.33
2022-09-03T17:28:24.843Z,40.56
2022-09-03T17:30:56.855Z,40.41
2022-09-03T17:34:13.450Z,40.58
2022-09-03T17:37:24.033Z,41.16
2022-09-03T17:40:03.710Z,41.49
2022-09-03T17:42:56.701Z,41.38
2022-09-03T17:45:53.008Z,41.67
2022-09-03T17:48:42.576Z,41.74
2022-09-03T17:51:51.895Z,41.75
2022-09-03T17:54:23.360Z,41.65
2022-09-03T17:57:05.515Z,42.35
2022-09-03T17:59:56.025Z,42.20
2022-09-03T18:02:36.233Z,42.11
2022-09-03T18:05:18.405Z,42.51
2022-09-03T18:08:00.802Z,42.84
2022-09-03T18:10:46.637Z,42.63
2022-09-03T18:13:47.371Z,42.75
2022-09-03T18:16:31.693Z,42.79
2022-09-03T18:19:30.714Z,43.26
2022-09-03T18:22:24.497Z,43.17
2022-09-03T18:25:18.881Z,43.17
2022-09-03T18:28:29.450Z,43.43
2022-09-03T18:31:19.640Z,43.21
2022-09-03T18:34:09.861Z,43.15
2022-09-03T18:37:00.118Z,43.67
2022-09-03T18:39:50.478Z,43.52
2022-09-03T18:43:09.368Z,43.77
2022-09-03T18:49:45.565Z,44.83
2022-09-03T18:52:44.963Z,44.64
2022-09-03T18:55:56.589Z,45.04
2022-09-03T18:59:13.237Z,45.04
2022-09-03T19:02:03.629Z,45.27
2022-09-03T19:05:15.188Z,45.64
2022-09-03T19:08:46.899Z,46.07
2022-09-03T19:12:05.070Z,46.08
2022-09-03T19:15:17.319Z,46.34
2022-09-03T19:18:46.292Z,46.14
2022-09-03T19:21:59.928Z,46.76
2022-09-03T19:24:50.720Z,46.29
2022-09-03T19:28:21.481Z,46.56
2022-09-03T19:31:45.246Z,46.60
2022-09-03T19:35:04.539Z,46.92
2022-09-03T19:38:06.930Z,47.07
2022-09-03T19:41:19.309Z,47.50
2022-09-03T19:44:45.889Z,47.14
2022-09-03T19:47:58.975Z,47.61
2022-09-03T19:50:59.200Z,47.75
2022-09-03T19:53:52.289Z,47.88
2022-09-03T19:56:47.030Z,48.24
2022-09-03T19:59:39.615Z,48.25
2022-09-03T20:02:29.908Z,48.27
2022-09-03T20:05:25.599Z,48.47
2022-09-03T20:08:17.043Z,49.15
2022-09-03T20:10:52.301Z,48.64
2022-09-03T20:13:24.048Z,48.98
2022-09-03T20:16:13.712Z,49.34
2022-09-03T20:19:40.759Z,49.60
2022-09-03T20:22:30.875Z,49.49
2022-09-03T20:25:18.076Z,49.70
2022-09-03T20:27:55.824Z,49.56
2022-09-03T20:30:43.141Z,49.72
2022-09-03T20:33:22.890Z,50.23
2022-09-03T20:36:14.582Z,50.83
2022-09-03T20:39:04.272Z,50.71
2022-09-03T20:41:57.809Z,50.82
2022-09-03T20:44:52.628Z,50.79
2022-09-03T20:47:28.125Z,51.28
2022-09-03T20:50:46.563Z,51.05
2022-09-03T20:53:33.206Z,50.95
2022-09-03T20:56:27.416Z,51.55
2022-09-03T20:59:08.108Z,51.58
2022-09-03T21:01:52.266Z,51.74
2022-09-03T21:04:33.268Z,52.08
2022-09-03T21:07:29.258Z,52.28
2022-09-03T21:10:17.653Z,52.48
2022-09-03T21:13:33.180Z,52.09
2022-09-03T21:16:20.305Z,52.09
2022-09-03T21:19:13.925Z,52.72
2022-09-03T21:22:12.533Z,52.34
2022-09-03T21:24:56.956Z,52.64
2022-09-03T21:27:36.249Z,52.65
2022-09-03T21:30:13.175Z,52.96
2022-09-03T21:32:51.613Z,53.53
2022-09-03T21:35:42.852Z,53.25
2022-09-03T21:38:20.550Z,53.55
2022-09-03T21:41:01.396Z,53.18
2022-09-03T21:43:45.303Z,53.52
2022-09-03T21:46:25.542Z,53.64
2022-09-03T21:49:03.180Z,53.23
2022-09-03T21:51:44.307Z,54.03
2022-09-03T21:54:29.672Z,53.55
2022-09-03T21:57:24.928Z,54.37
2022-09-03T21:59:56.352Z,53.81
2022-09-03T22:02:32.813Z,53.94
2022-09-03T22:05:05.539Z,54.27
2022-09-03T22:07:37.081Z,54.10
2022-09-03T22:10:18.015Z,54.20
2022-09-03T22:13:02.644Z,54.33
2022-09-03T22:15:35.503Z,54.29
2022-09-03T22:18:16.399Z,54.22
2022-09-03T22:20:55.973Z,53.86
2022-09-03T22:23:42.894Z,54.37
2022-09-03T22:26:27.785Z,54.28
2022-09-03T22:29:02.662Z,54.50
2022-09-03T22:31:55.087Z,54.64
2022-09-03T22:34:41.921Z,54.48
2022-09-03T22:37:47.304Z,54.50
2022-09-03T22:40:52.142Z,54.88
2022-09-03T22:43:38.574Z,54.48
2022-09-03T22:46:14.481Z,54.83
2022-09-03T22:49:14.216Z,55.09
2022-09-03T22:52:20.881Z,54.83
2022-09-03T22:55:18.633Z,55.64
2022-09-03T22:58:02.617Z,55.28
2022-09-03T23:00:41.160Z,55.36
2022-09-03T23:03:24.250Z,55.36
2022-09-03T23:06:03.296Z,55.45
2022-09-03T23:08:49.760Z,55.69
2022-09-03T23:11:26.737Z,55.59
2022-09-03T23:14:04.730Z,55.63
2022-09-03T23:16:53.634Z,55.79
2022-09-03T23:19:41.174Z,55.79
2022-09-03T23:22:26.069Z,55.56
2022-09-03T23:25:03.219Z,55.58
2022-09-03T23:27:50.497Z,55.72
2022-09-03T23:30:22.177Z,55.55
2022-09-03T23:32:57.997Z,55.66
2022-09-03T23:35:34.942Z,55.37
2022-09-03T23:38:33.368Z,55.43
2022-09-03T23:41:15.031Z,55.75
2022-09-03T23:44:18.958Z,55.83
2022-09-03T23:47:37.524Z,55.65
2022-09-03T23:50:33.791Z,55.63
2022-09-03T23:53:14.937Z,55.63
2022-09-03T23:56:14.777Z,55.92
2022-09-03T23:59:23.750Z,56.08
